createdAt,value
2022-09-12T00:03:53.152Z,92.10
2022-09-12T00:08:57.568Z,91.87
2022-09-12T00:14:01.538Z,92.46
2022-09-12T00:19:05.605Z,93.24
2022-09-12T00:24:09.709Z,94.64
2022-09-12T00:29:20.491Z,96.06
2022-09-12T00:34:23.178Z,97.19
2022-09-12T00:39:25.918Z,98.24
2022-09-12T00:44:28.974Z,98.44
2022-09-12T00:49:50.191Z,98.59
2022-09-12T00:55:29.369Z,99.03
2022-09-12T01:00:32.296Z,99.07
2022-09-12T01:05:37.349Z,99.46
2022-09-12T01:10:41.177Z,99.56
2022-09-12T01:15:44.222Z,99.80
2022-09-12T01:21:03.978Z,100.00
2022-09-12T01:26:31.853Z,100.00
2022-09-12T01:32:01.924Z,100.00
2022-09-12T01:37:15.852Z,100.00
2022-09-12T01:42:24.526Z,100.00
2022-09-12T01:47:44.371Z,100.00
2022-09-12T01:52:56.900Z,100.00
2022-09-12T01:58:17.752Z,100.00
2022-09-12T02:03:34.226Z,100.00
2022-09-12T02:08:53.913Z,100.00
2022-09-12T02:14:07.968Z,100.00
2022-09-12T02:19:17.313Z,100.00
2022-09-12T02:24:21.336Z,100.00
2022-09-12T02:29:24.145Z,100.00
2022-09-12T02:34:46.335Z,100.00
2022-09-12T02:39:49.066Z,100.00
2022-09-12T02:44:53.481Z,100.00
2022-09-12T02:49:57.482Z,100.00
2022-09-12T02:55:00.558Z,100.00
2022-09-12T03:00:05.214Z,100.00
2022-09-12T03:05:52.617Z,100.00
2022-09-12T03:11:15.634Z,100.00
2022-09-12T03:16:33.395Z,100.00
2022-09-12T03:21:49.124Z,100.00
2022-09-12T03:27:00.729Z,100.00
2022-09-12T03:32:03.612Z,100.00
2022-09-12T03:37:08.971Z,100.00
2022-09-12T03:42:11.754Z,100.00
2022-09-12T03:47:14.474Z,100.00
2022-09-12T03:52:17.637Z,100.00
2022-09-12T03:57:21.487Z,100.00
2022-09-12T04:02:28.696Z,100.00
2022-09-12T04:07:31.448Z,100.00
2022-09-12T04:12:36.054Z,100.00
2022-09-12T04:17:38.929Z,100.00
2022-09-12T04:22:42.525Z,100.00
2022-09-12T04:27:49.770Z,100.00
2022-09-12T04:32:53.430Z,100.00
2022-09-12T04:37:56.181Z,100.00
2022-09-12T04:43:01.799Z,100.00
2022-09-12T04:48:04.737Z,100.00
2022-09-12T04:53:07.933Z,100.00
2022-09-12T04:58:19.526Z,100.00
2022-09-12T05:03:25.226Z,100.00
2022-09-12T05:08:30.759Z,100.00
2022-09-12T05:13:34.243Z,100.00
2022-09-12T05:18:37.620Z,100.00
2022-09-12T05:23:43.393Z,100.00
2022-09-12T05:40:42.503Z,100.00
2022-09-12T05:45:45.475Z,100.00
2022-09-12T05:51:01.913Z,100.00
2022-09-12T05:56:12.212Z,100.00
2022-09-12T06:01:19.700Z,100.00
2022-09-12T06:06:24.845Z,100.00
2022-09-12T06:11:29.738Z,100.00
2022-09-12T06:16:34.097Z,100.00
2022-09-12T06:21:38.273Z,100.00
2022-09-12T06:26:41.057Z,100.00
2022-09-12T06:31:44.491Z,100.00
2022-09-12T06:36:53.947Z,100.00
2022-09-12T06:41:56.723Z,100.00
2022-09-12T06:47:09.295Z,100.00
2022-09-12T06:52:11.996Z,100.00
2022-09-12T06:57:15.106Z,100.00
2022-09-12T07:02:17.842Z,100.00
2022-09-12T07:07:20.881Z,100.00
2022-09-12T07:12:23.547Z,100.00
2022-09-12T07:17:26.216Z,100.00
2022-09-12T07:22:31.945Z,100.00
2022-09-12T07:27:34.854Z,100.00
2022-09-12T07:32:37.548Z,97.16
2022-09-12T07:37:40.337Z,94.36
2022-09-12T07:42:43.161Z,95.05
2022-09-12T07:47:45.865Z,92.61
2022-09-12T07:52:48.601Z,94.15
2022-09-12T07:57:52.731Z,93.98
2022-09-12T08:02:55.593Z,94.23
2022-09-12T08:07:58.399Z,94.31
2022-09-12T08:13:01.087Z,93.32
2022-09-12T08:18:03.938Z,91.37
2022-09-12T08:23:06.715Z,91.76
2022-09-12T08:28:09.501Z,91.99
2022-09-12T08:33:12.367Z,90.33
2022-09-12T08:38:15.055Z,87.13
2022-09-12T08:43:34.200Z,83.90
2022-09-12T08:48:37.311Z,82.65
2022-09-12T08:53:40.631Z,80.49
2022-09-12T08:58:45.345Z,79.60
2022-09-12T09:03:57.042Z,78.11
2022-09-12T09:09:05.336Z,75.91
2022-09-12T09:14:51.305Z,75.82
2022-09-12T09:20:41.614Z,72.88
2022-09-12T09:26:15.317Z,72.88
2022-09-12T09:31:23.448Z,73.35
2022-09-12T09:36:47.459Z,74.23
2022-09-12T09:42:10.849Z,74.54
2022-09-12T09:47:13.657Z,74.10
2022-09-12T09:52:18.109Z,72.51
2022-09-12T09:57:37.635Z,72.17
2022-09-12T10:02:47.197Z,73.60
2022-09-12T10:07:53.512Z,73.54
2022-09-12T10:13:09.469Z,73.27
2022-09-12T10:18:13.014Z,72.06
2022-09-12T10:23:38.278Z,70.28
2022-09-12T10:28:51.585Z,70.27
2022-09-12T10:33:55.044Z,70.19
2022-09-12T10:39:01.024Z,71.60
2022-09-12T10:44:14.801Z,72.72
2022-09-12T10:49:27.918Z,72.69
2022-09-12T10:54:31.221Z,72.78
2022-09-12T10:59:45.796Z,72.40
2022-09-12T11:04:57.505Z,72.36
2022-09-12T11:10:15.197Z,72.92
2022-09-12T11:15:35.761Z,72.95
2022-09-12T11:20:44.685Z,73.03
2022-09-12T11:25:52.986Z,73.52
2022-09-12T11:31:25.962Z,72.91
2022-09-12T11:36:57.935Z,72.10
2022-09-12T11:42:04.109Z,73.03
2022-09-12T11:47:08.756Z,74.17
2022-09-12T11:52:11.468Z,74.42
2022-09-12T11:57:36.136Z,75.08
2022-09-12T12:03:04.649Z,75.29
2022-09-12T12:08:07.487Z,75.80
2022-09-12T12:13:34.916Z,75.99
2022-09-12T12:18:39.112Z,77.19
2022-09-12T12:24:09.989Z,77.55
2022-09-12T12:29:18.855Z,78.72
2022-09-12T12:34:28.816Z,80.06
2022-09-12T12:39:34.503Z,80.48
2022-09-12T12:44:46.161Z,81.11
2022-09-12T12:50:11.116Z,81.04
2022-09-12T12:55:40.219Z,81.10
2022-09-12T13:00:43.485Z,81.49
2022-09-12T13:06:02.337Z,82.13
2022-09-12T13:11:32.804Z,82.42
2022-09-12T13:16:54.120Z,83.38
2022-09-12T13:22:00.586Z,83.87
2022-09-12T13:27:03.448Z,84.42
2022-09-12T13:32:07.363Z,84.08
2022-09-12T13:37:13.021Z,83.92
2022-09-12T13:42:50.072Z,83.85
2022-09-12T13:47:59.056Z,83.46
2022-09-12T13:53:13.680Z,83.55
2022-09-12T13:58:24.360Z,84.06
2022-09-12T14:03:47.622Z,83.94
2022-09-12T14:08:50.462Z,84.41
2022-09-12T14:13:53.645Z,84.17
2022-09-12T14:18:57.353Z,84.59
2022-09-12T14:24:01.159Z,84.98
2022-09-12T14:29:08.019Z,84.90
2022-09-12T14:34:20.848Z,84.76
2022-09-12T14:39:38.369Z,84.94
2022-09-12T14:44:41.906Z,84.78
2022-09-12T14:49:47.359Z,84.99
2022-09-12T14:55:15.553Z,84.64
2022-09-12T15:00:40.944Z,84.20
2022-09-12T15:05:50.123Z,84.04
2022-09-12T15:10:53.133Z,84.53
2022-09-12T15:15:58.085Z,84.34
2022-09-12T15:21:06.514Z,84.61
2022-09-12T15:26:16.051Z,84.48
2022-09-12T15:31:27.325Z,84.77
2022-09-12T15:36:30.389Z,84.69
2022-09-12T15:41:43.793Z,84.69
2022-09-12T15:46:49.529Z,84.53
2022-09-12T15:51:53.990Z,84.66
2022-09-12T15:56:59.856Z,84.65
2022-09-12T16:02:10.886Z,85.17
2022-09-12T16:07:13.693Z,84.71
2022-09-12T16:12:16.499Z,84.57
2022-09-12T16:17:24.941Z,84.76
2022-09-12T16:22:28.148Z,84.39
2022-09-12T16:27:31.711Z,84.30
2022-09-12T16:32:34.763Z,84.50
2022-09-12T16:37:37.607Z,84.54
2022-09-12T16:42:43.636Z,84.37
2022-09-12T16:47:46.726Z,84.75
2022-09-12T16:52:49.459Z,84.52
2022-09-12T16:57:52.311Z,84.70
2022-09-12T17:02:55.056Z,84.36
2022-09-12T17:07:57.826Z,84.67
2022-09-12T17:13:00.569Z,84.85
2022-09-12T17:18:03.303Z,84.92
2022-09-12T17:23:09.629Z,84.77
2022-09-12T17:28:12.680Z,85.08
2022-09-12T17:33:15.854Z,84.90
2022-09-12T17:38:24.564Z,84.97
2022-09-12T17:43:27.963Z,85.24
2022-09-12T17:48:31.227Z,85.08
2022-09-12T17:53:34.950Z,85.25
2022-09-12T17:58:38.213Z,85.18
2022-09-12T18:03:40.956Z,85.29
2022-09-12T18:08:43.764Z,85.38
2022-09-12T18:13:46.741Z,85.57
2022-09-12T18:18:51.398Z,85.53
2022-09-12T18:23:54.348Z,85.59
2022-09-12T18:28:57.716Z,85.65
2022-09-12T18:34:01.370Z,85.94
2022-09-12T18:39:04.099Z,86.23
2022-09-12T18:44:08.079Z,85.98
2022-09-12T18:49:11.400Z,86.11
2022-09-12T18:54:14.952Z,86.40
2022-09-12T18:59:17.853Z,86.56
2022-09-12T19:04:20.668Z,86.78
2022-09-12T19:09:23.655Z,86.61
2022-09-12T19:14:27.274Z,87.25
2022-09-12T19:19:30.085Z,86.87
2022-09-12T19:24:33.081Z,87.26
2022-09-12T19:29:35.854Z,87.25
2022-09-12T19:34:38.547Z,87.31
2022-09-12T19:39:44.459Z,87.34
2022-09-12T19:44:47.322Z,87.65
2022-09-12T19:49:50.032Z,87.78
2022-09-12T19:54:52.741Z,87.70
2022-09-12T19:59:55.899Z,88.34
2022-09-12T20:04:58.729Z,87.89
2022-09-12T20:10:01.535Z,87.71
2022-09-12T20:15:06.454Z,87.92
2022-09-12T20:20:10.775Z,87.86
2022-09-12T20:25:13.488Z,87.65
2022-09-12T20:30:16.667Z,87.44
2022-09-12T20:35:19.507Z,87.62
2022-09-12T20:40:22.298Z,87.61
2022-09-12T20:45:25.148Z,87.60
2022-09-12T20:50:28.181Z,87.76
2022-09-12T20:55:30.910Z,87.43
2022-09-12T21:00:33.541Z,87.45
2022-09-12T21:05:36.265Z,87.41
2022-09-12T21:10:42.274Z,87.26
2022-09-12T21:15:45.551Z,87.61
2022-09-12T21:20:55.301Z,87.37
2022-09-12T21:25:59.610Z,87.41
2022-09-12T21:31:02.348Z,87.61
2022-09-12T21:36:06.221Z,87.19
2022-09-12T21:41:16.211Z,87.17
2022-09-12T21:46:18.996Z,87.11
2022-09-12T21:51:22.211Z,87.54
2022-09-12T21:56:24.849Z,87.67
2022-09-12T22:01:27.668Z,87.64
2022-09-12T22:06:30.490Z,87.75
2022-09-12T22:11:33.382Z,87.70
2022-09-12T22:16:36.071Z,87.61
2022-09-12T22:21:58.656Z,87.83
2022-09-12T22:27:04.132Z,87.85
2022-09-12T22:32:06.579Z,87.85
2022-09-12T22:37:11.637Z,87.82
2022-09-12T22:42:14.767Z,87.44
2022-09-12T22:47:20.351Z,88.00
2022-09-12T22:52:23.641Z,87.80
2022-09-12T22:57:26.324Z,88.67
2022-09-12T23:02:30.041Z,88.26
2022-09-12T23:07:33.563Z,88.58
2022-09-12T23:12:36.332Z,89.14
2022-09-12T23:17:39.219Z,88.62
2022-09-12T23:22:42.090Z,89.33
2022-09-12T23:27:44.908Z,89.31
2022-09-12T23:32:50.547Z,89.31
2022-09-12T23:37:53.239Z,89.64
2022-09-12T23:42:56.271Z,89.51
2022-09-12T23:47:59.282Z,89.42
2022-09-12T23:53:02.009Z,89.52
2022-09-12T23:58:04.748Z,89.62
